Accueil
METAR-TAF:

METAR-TAF

Aéroports :

Aéroport exécutif Gatineau-Ottawa

Gatineau, Québec, Canada

latitude: 45-31N, longitude: 075-34W, altitude: 64 m

Observation

Le bulletin a été fait il y a 27 minutes, à 21:00 UTC
Vent 6 kt de ouest/sud-ouest, variant entre sud-ouest et nord-ouest
Température 26°C
Humidité 26%
Pression 1015 hPa
Visibilité: 24.1 km
Quelques nuages à une hauteur de 22000 ft

METAR: CYND 242100Z 25006KT 230V310 15SM FEW220 26/05 A2997 RMK CI2 SLP152 DENSITY ALT 1600FT

Heure: 17:27 (21:27 UTC)

Prévision

Le bulletin a été fait il y a 3 heures et 49 minutes, à 17:38 UTC
Prévision valable du 24 à 18 UTC au 25 à 01 UTC
Vent 8 kt de sud-ouest
Visibilité: 10 km
Quelques nuages à une hauteur de 24000 ft
A partir de 24 à 2300 UTC
Vent 12 kt de sud-ouest avec des rafales jusqu'à 22 kt
Visibilité: 10 km
Ciel clair

TAF: CYND 241738Z 2418/2501 23008KT P6SM FEW240 FM242300 23012G22KT P6SM SKC RMK NXT FCST WILL BE ISSUED AT 251245Z

Observations et prévisions météorologiques de plus de 4000 aéroports (messages METAR et TAF).

Les stations disponibles sont représentées par des disques jaunes et rouges sur la carte.

Passer la souris dessus pour voir le nom de la station.

Cliquer dessus pour voir les observations et prévisions météorologiques.

Pour changer de carte: cliquez sur les boutons verts avec une croix noire pour zoomer, sur le bouton vert avec un tiret pour effectuer un zoom arrière, ou sur les flèches vertes pour les cartes adjacentes.


METAR-TAF: